createdAt,value
2019-04-23T00:03:52.027Z,69.60
2019-04-23T00:06:24.832Z,70.40
2019-04-23T00:08:58.104Z,70.80
2019-04-23T00:11:26.047Z,70.70
2019-04-23T00:14:01.280Z,70.90
2019-04-23T00:16:25.659Z,70.80
2019-04-23T00:19:04.592Z,70.70
2019-04-23T00:21:48.580Z,70.70
2019-04-23T00:24:54.853Z,70.00
2019-04-23T00:27:10.497Z,70.60
2019-04-23T00:29:36.770Z,70.90
2019-04-23T00:32:04.805Z,71.60
2019-04-23T00:34:38.066Z,70.40
2019-04-23T00:37:04.640Z,70.10
2019-04-23T00:39:24.969Z,71.50
2019-04-23T00:41:58.605Z,70.50
2019-04-23T00:44:33.583Z,70.60
2019-04-23T00:46:54.446Z,70.40
2019-04-23T00:49:28.974Z,71.00
2019-04-23T00:52:00.687Z,70.90
2019-04-23T00:54:28.696Z,71.30
2019-04-23T00:56:55.423Z,72.10
2019-04-23T00:59:21.269Z,70.90
2019-04-23T01:04:22.842Z,71.40
2019-04-23T01:06:52.917Z,71.30
2019-04-23T01:09:15.574Z,71.10
2019-04-23T01:11:52.266Z,72.10
2019-04-23T01:16:45.994Z,71.20
2019-04-23T01:19:32.028Z,72.50
2019-04-23T01:21:38.947Z,73.20
2019-04-23T01:24:38.435Z,73.20
2019-04-23T01:27:49.179Z,73.60
2019-04-23T01:30:12.829Z,73.30
2019-04-23T01:32:54.835Z,72.60
2019-04-23T01:35:15.159Z,72.60
2019-04-23T01:37:36.753Z,73.80
2019-04-23T01:40:09.720Z,73.50
2019-04-23T01:45:07.044Z,74.30
2019-04-23T01:47:31.726Z,75.40
2019-04-23T01:50:09.958Z,73.20
2019-04-23T01:52:38.093Z,73.20
2019-04-23T01:55:00.831Z,73.30
2019-04-23T01:57:32.379Z,74.20
2019-04-23T02:00:03.167Z,73.80
2019-04-23T02:02:36.134Z,73.70
2019-04-23T02:05:03.695Z,74.90
2019-04-23T02:15:00.212Z,75.20
2019-04-23T02:17:36.241Z,74.70
2019-04-23T02:20:02.275Z,74.60
2019-04-23T02:22:54.208Z,74.70
2019-04-23T02:25:30.314Z,75.20
2019-04-23T02:27:58.238Z,75.80
2019-04-23T02:30:40.871Z,76.60
2019-04-23T02:33:01.107Z,78.00
2019-04-23T02:38:00.525Z,78.20
2019-04-23T02:45:17.005Z,80.00
2019-04-23T02:57:41.594Z,82.90
2019-04-23T03:00:18.935Z,83.30
2019-04-23T03:05:13.198Z,84.00
2019-04-23T03:07:45.524Z,85.70
2019-04-23T03:10:08.301Z,85.60
2019-04-23T03:12:37.958Z,87.00
2019-04-23T03:23:34.418Z,90.10
2019-04-23T03:26:09.283Z,90.00
2019-04-23T03:28:38.113Z,90.40
2019-04-23T03:32:35.634Z,90.40
2019-04-23T03:38:41.813Z,91.90
2019-04-23T03:41:07.068Z,92.70
2019-04-23T03:43:33.632Z,93.00
2019-04-23T03:46:12.458Z,93.00
2019-04-23T03:48:36.382Z,93.30
2019-04-23T03:50:49.350Z,93.70
2019-04-23T03:53:32.939Z,93.80
2019-04-23T03:58:27.872Z,95.10
2019-04-23T04:03:42.203Z,94.80
2019-04-23T04:08:18.423Z,95.60
2019-04-23T04:10:52.358Z,96.70
2019-04-23T04:13:22.316Z,97.30
2019-04-23T04:15:55.271Z,98.00
2019-04-23T04:18:33.156Z,97.60
2019-04-23T04:20:53.729Z,98.50
2019-04-23T04:23:26.237Z,99.10
2019-04-23T04:25:48.621Z,99.90
2019-04-23T04:28:19.536Z,99.90
2019-04-23T04:30:53.865Z,99.90
2019-04-23T04:33:44.195Z,99.90
2019-04-23T04:36:01.011Z,99.90
2019-04-23T04:38:38.683Z,99.90
2019-04-23T04:40:55.195Z,99.90
2019-04-23T04:43:37.795Z,99.90
2019-04-23T04:46:04.959Z,99.90
2019-04-23T04:48:18.131Z,99.90
2019-04-23T04:51:00.395Z,99.90
2019-04-23T04:53:35.660Z,99.90
2019-04-23T05:08:21.663Z,99.90
2019-04-23T05:13:34.658Z,99.90
2019-04-23T05:21:05.147Z,99.90
2019-04-23T05:23:54.091Z,99.90
2019-04-23T05:26:17.444Z,99.90
2019-04-23T05:28:52.285Z,99.90
2019-04-23T05:31:14.198Z,99.90
2019-04-23T05:33:40.976Z,99.90
2019-04-23T05:41:16.643Z,99.90
2019-04-23T05:43:43.612Z,99.90
2019-04-23T05:46:17.506Z,99.90
2019-04-23T05:48:43.588Z,99.90
2019-04-23T05:51:13.181Z,99.90
2019-04-23T05:53:40.796Z,99.90
2019-04-23T05:58:38.729Z,99.90
2019-04-23T06:01:32.454Z,99.90
2019-04-23T06:03:50.943Z,99.90
2019-04-23T06:06:20.268Z,99.90
2019-04-23T06:08:50.733Z,99.90
2019-04-23T06:11:18.607Z,99.90
2019-04-23T06:13:56.177Z,99.90
2019-04-23T06:16:22.369Z,99.90
2019-04-23T06:18:44.761Z,99.90
2019-04-23T06:21:15.685Z,99.90
2019-04-23T06:23:43.897Z,99.90
2019-04-23T06:28:46.835Z,99.90
2019-04-23T06:31:16.635Z,99.90
2019-04-23T06:33:41.314Z,99.90
2019-04-23T06:36:12.491Z,99.90
2019-04-23T06:38:46.091Z,99.90
2019-04-23T06:41:09.931Z,99.90
2019-04-23T06:43:56.682Z,99.90
2019-04-23T06:46:17.300Z,99.90
2019-04-23T06:48:40.804Z,99.90
2019-04-23T06:53:40.427Z,99.90
2019-04-23T06:56:14.837Z,99.90
2019-04-23T06:58:37.613Z,99.90
2019-04-23T07:01:04.922Z,99.90
2019-04-23T07:03:48.569Z,99.90
2019-04-23T07:11:18.855Z,99.90
2019-04-23T07:13:46.606Z,99.90
2019-04-23T07:16:12.865Z,99.90
2019-04-23T07:18:36.451Z,99.90
2019-04-23T07:21:15.445Z,99.90
2019-04-23T07:23:44.766Z,99.90
2019-04-23T07:26:21.284Z,99.90
2019-04-23T07:28:37.310Z,99.90
2019-04-23T07:31:14.085Z,99.90
2019-04-23T07:33:35.078Z,99.90
2019-04-23T07:36:08.541Z,99.90
2019-04-23T07:38:48.181Z,99.90
2019-04-23T07:41:25.276Z,99.90
2019-04-23T07:44:04.941Z,99.90
2019-04-23T07:46:33.234Z,99.90
2019-04-23T07:48:56.405Z,99.90
2019-04-23T07:51:29.375Z,99.90
2019-04-23T07:54:06.290Z,99.90
2019-04-23T07:56:21.475Z,99.90
2019-04-23T07:58:58.434Z,99.90
2019-04-23T08:01:39.290Z,99.90
2019-04-23T08:03:57.672Z,99.90
2019-04-23T08:06:21.688Z,99.90
2019-04-23T08:08:56.327Z,99.90
2019-04-23T08:16:32.975Z,99.90
2019-04-23T08:21:21.189Z,99.90
2019-04-23T08:24:10.646Z,99.90
2019-04-23T08:26:59.634Z,99.90
2019-04-23T08:29:27.575Z,99.90
2019-04-23T08:32:09.079Z,99.90
2019-04-23T08:34:35.824Z,99.90
2019-04-23T08:37:05.069Z,99.90
2019-04-23T08:39:33.939Z,99.90
2019-04-23T08:42:21.771Z,99.90
2019-04-23T08:45:11.982Z,99.90
2019-04-23T08:47:31.946Z,99.90
2019-04-23T08:50:02.420Z,99.90
2019-04-23T08:52:30.055Z,99.90
2019-04-23T08:55:07.606Z,99.90
2019-04-23T09:00:17.739Z,99.90
2019-04-23T09:02:37.429Z,99.90
2019-04-23T09:05:00.771Z,99.90
2019-04-23T09:07:45.868Z,99.90
2019-04-23T09:10:04.726Z,99.90
2019-04-23T09:12:36.725Z,99.90
2019-04-23T09:15:05.664Z,99.90
2019-04-23T09:17:37.855Z,99.90
2019-04-23T09:20:11.868Z,99.90
2019-04-23T09:22:31.157Z,99.90
2019-04-23T09:25:06.017Z,99.90
2019-04-23T09:27:27.341Z,99.90
2019-04-23T09:32:25.157Z,99.90
2019-04-23T09:37:59.610Z,99.90
2019-04-23T09:41:25.741Z,99.90
2019-04-23T09:46:44.052Z,99.90
2019-04-23T09:49:29.122Z,99.90
2019-04-23T09:51:46.813Z,99.90
2019-04-23T09:54:16.251Z,99.90
2019-04-23T09:56:41.445Z,99.90
2019-04-23T09:59:20.853Z,99.90
2019-04-23T10:01:32.787Z,99.90
2019-04-23T10:03:59.080Z,99.90
2019-04-23T10:06:19.051Z,99.90
2019-04-23T10:08:44.981Z,99.90
2019-04-23T10:11:09.624Z,99.90
2019-04-23T10:13:38.565Z,99.90
2019-04-23T10:16:07.552Z,99.90
2019-04-23T10:18:37.207Z,99.90
2019-04-23T10:21:05.595Z,99.90
2019-04-23T10:23:33.496Z,99.90
2019-04-23T10:26:01.843Z,99.90
2019-04-23T10:28:36.028Z,99.90
2019-04-23T10:31:04.886Z,99.90
2019-04-23T10:33:32.351Z,99.90
2019-04-23T10:36:06.292Z,99.90
2019-04-23T10:38:30.706Z,99.90
2019-04-23T10:40:58.050Z,99.90
2019-04-23T10:43:27.696Z,99.90
2019-04-23T10:46:35.135Z,99.90
2019-04-23T10:51:59.231Z,99.90
2019-04-23T10:54:35.860Z,99.90
2019-04-23T10:57:07.417Z,99.90
2019-04-23T10:59:35.034Z,99.90
2019-04-23T11:07:20.249Z,99.90
2019-04-23T11:09:49.636Z,99.90
2019-04-23T11:17:45.937Z,99.90
2019-04-23T11:22:56.770Z,99.90
2019-04-23T11:25:20.393Z,99.90
2019-04-23T11:27:43.979Z,99.90
2019-04-23T11:30:23.127Z,99.90
2019-04-23T11:40:10.375Z,99.90
2019-04-23T11:42:42.657Z,99.90
2019-04-23T11:45:19.117Z,99.90
2019-04-23T11:48:13.893Z,99.90
2019-04-23T11:52:41.611Z,99.90
2019-04-23T11:55:19.637Z,99.90
2019-04-23T12:00:05.961Z,99.90
2019-04-23T12:02:49.998Z,99.90
2019-04-23T12:05:50.116Z,99.90
2019-04-23T12:08:36.512Z,99.90
2019-04-23T12:11:32.458Z,99.90
2019-04-23T12:18:34.928Z,99.90
2019-04-23T12:21:04.783Z,99.90
2019-04-23T12:23:50.518Z,99.90
2019-04-23T12:26:11.600Z,99.90
2019-04-23T12:28:42.176Z,99.90
2019-04-23T12:30:57.084Z,99.90
2019-04-23T12:33:41.144Z,99.90
2019-04-23T12:36:28.259Z,99.90
2019-04-23T12:38:49.518Z,99.90
2019-04-23T12:41:26.464Z,99.90
2019-04-23T12:43:50.530Z,99.90
2019-04-23T12:46:25.997Z,99.90
2019-04-23T12:51:26.346Z,99.90
2019-04-23T12:53:43.248Z,99.90
2019-04-23T12:56:22.881Z,99.90
2019-04-23T12:58:58.155Z,99.90
2019-04-23T13:01:13.523Z,99.90
2019-04-23T13:03:41.235Z,99.90
2019-04-23T13:06:10.260Z,99.90
2019-04-23T13:08:44.342Z,99.90
2019-04-23T13:11:13.746Z,99.90
2019-04-23T13:16:12.771Z,99.90
2019-04-23T13:18:43.041Z,99.90
2019-04-23T13:21:30.073Z,99.90
2019-04-23T13:23:34.852Z,99.90
2019-04-23T13:26:04.123Z,99.90
2019-04-23T13:29:00.957Z,99.90
2019-04-23T13:31:13.007Z,99.20
2019-04-23T13:36:19.007Z,99.50
2019-04-23T13:41:17.006Z,99.10
2019-04-23T13:48:40.118Z,96.00
2019-04-23T13:51:14.196Z,95.40
2019-04-23T13:53:45.022Z,95.90
2019-04-23T13:56:08.818Z,95.80
2019-04-23T14:06:18.431Z,97.60
2019-04-23T14:11:14.004Z,95.80
2019-04-23T14:16:17.638Z,96.30
2019-04-23T14:18:53.978Z,95.70
2019-04-23T14:21:17.201Z,94.30
2019-04-23T14:28:35.491Z,94.80
2019-04-23T14:31:07.801Z,94.90
2019-04-23T14:36:00.531Z,94.70
2019-04-23T14:38:34.208Z,94.70
2019-04-23T14:41:09.923Z,94.90
2019-04-23T14:43:39.995Z,96.40
2019-04-23T14:48:56.974Z,96.10
2019-04-23T14:51:30.862Z,94.20
2019-04-23T14:53:48.093Z,96.30
2019-04-23T14:56:20.194Z,94.50
2019-04-23T15:01:34.824Z,94.90
2019-04-23T15:03:49.240Z,94.50
2019-04-23T15:06:36.104Z,95.70
2019-04-23T15:11:27.510Z,95.30
2019-04-23T15:16:31.618Z,94.50
2019-04-23T15:19:10.813Z,93.70
2019-04-23T15:21:53.746Z,93.80
2019-04-23T15:24:03.435Z,94.70
2019-04-23T15:27:22.319Z,94.40
2019-04-23T15:28:39.413Z,95.70
2019-04-23T15:31:33.088Z,95.40
2019-04-23T15:41:32.216Z,94.30
2019-04-23T15:44:05.650Z,94.90
2019-04-23T15:53:56.636Z,95.30
2019-04-23T16:01:29.346Z,94.70
2019-04-23T16:03:29.466Z,95.80
2019-04-23T16:05:59.396Z,96.20
2019-04-23T16:09:04.715Z,95.80
2019-04-23T16:14:10.203Z,95.50
2019-04-23T16:16:30.075Z,96.60
2019-04-23T16:19:07.994Z,97.00
2019-04-23T16:21:44.576Z,95.80
2019-04-23T16:24:11.018Z,95.80
2019-04-23T16:29:25.948Z,97.20
2019-04-23T16:31:38.104Z,96.70
2019-04-23T16:34:23.630Z,97.30
2019-04-23T16:36:54.882Z,98.00
2019-04-23T16:39:39.075Z,97.60
2019-04-23T16:41:54.801Z,97.50
2019-04-23T16:44:37.014Z,98.80
2019-04-23T16:47:00.414Z,99.40
2019-04-23T16:51:47.479Z,98.40
2019-04-23T16:54:24.543Z,98.40
2019-04-23T16:59:24.223Z,98.10
2019-04-23T17:02:02.102Z,98.50
2019-04-23T17:04:24.406Z,99.20
2019-04-23T17:06:52.741Z,98.60
2019-04-23T17:09:32.139Z,99.90
2019-04-23T17:12:01.534Z,99.90
2019-04-23T17:14:33.022Z,99.90
2019-04-23T17:16:42.144Z,99.90
2019-04-23T17:19:26.219Z,99.90
2019-04-23T17:21:57.326Z,99.90
2019-04-23T17:26:45.139Z,99.90
2019-04-23T17:32:00.647Z,99.90
2019-04-23T17:34:30.221Z,99.90
2019-04-23T17:37:06.348Z,99.90
2019-04-23T17:39:43.986Z,99.90
2019-04-23T17:42:25.569Z,99.90
2019-04-23T17:45:06.392Z,99.90
2019-04-23T17:47:27.213Z,99.90
2019-04-23T17:52:29.524Z,99.90
2019-04-23T17:55:07.658Z,99.90
2019-04-23T17:57:32.933Z,99.90
2019-04-23T18:00:09.948Z,99.90
2019-04-23T18:07:31.932Z,99.90
2019-04-23T18:09:57.850Z,99.90
2019-04-23T18:12:37.621Z,99.90
2019-04-23T18:14:52.704Z,99.90
2019-04-23T18:20:13.373Z,99.90
2019-04-23T18:22:47.027Z,99.90
2019-04-23T18:25:37.412Z,99.90
2019-04-23T18:27:50.753Z,99.90
2019-04-23T18:30:50.050Z,99.90
2019-04-23T18:33:51.221Z,99.90
2019-04-23T18:35:44.604Z,99.90
2019-04-23T18:41:02.552Z,99.90
2019-04-23T18:43:26.892Z,99.90
2019-04-23T18:45:53.807Z,99.90
2019-04-23T18:51:02.732Z,99.90
2019-04-23T18:53:39.598Z,99.90
2019-04-23T18:58:37.301Z,99.90
2019-04-23T19:06:37.814Z,99.90
2019-04-23T19:09:47.784Z,99.90
2019-04-23T19:12:14.361Z,99.90
2019-04-23T19:19:48.408Z,99.90
2019-04-23T19:24:38.984Z,99.90
2019-04-23T19:27:28.374Z,99.90
2019-04-23T19:32:00.498Z,99.90
2019-04-23T19:34:40.701Z,99.90
2019-04-23T19:37:36.796Z,99.90
2019-04-23T19:39:43.214Z,99.90
2019-04-23T19:42:33.289Z,99.90
2019-04-23T19:44:45.593Z,99.90
2019-04-23T19:47:09.239Z,99.90
2019-04-23T19:49:37.125Z,99.90
2019-04-23T19:52:34.293Z,99.90
2019-04-23T19:57:19.451Z,99.90
2019-04-23T20:02:22.867Z,99.90
2019-04-23T20:07:20.097Z,99.90
2019-04-23T20:12:13.966Z,99.90
2019-04-23T20:14:52.261Z,99.90
2019-04-23T20:17:34.427Z,99.90
2019-04-23T20:19:45.346Z,99.90
2019-04-23T20:22:21.864Z,99.90
2019-04-23T20:27:17.903Z,99.90
2019-04-23T20:35:12.450Z,99.90
2019-04-23T20:38:09.324Z,99.90
2019-04-23T20:40:30.327Z,99.90
2019-04-23T20:42:36.701Z,99.90
2019-04-23T20:45:07.944Z,99.90
2019-04-23T20:47:40.570Z,99.90
2019-04-23T20:49:54.227Z,99.90
2019-04-23T20:52:29.191Z,99.90
2019-04-23T20:57:48.524Z,99.90
2019-04-23T21:00:36.708Z,99.90
2019-04-23T21:03:18.761Z,99.90
2019-04-23T21:05:22.717Z,99.90
2019-04-23T21:10:34.836Z,99.90
2019-04-23T21:18:06.206Z,99.90
2019-04-23T21:23:04.646Z,99.90
2019-04-23T21:28:10.027Z,99.90
2019-04-23T21:36:34.430Z,99.90
2019-04-23T21:39:04.446Z,99.90
2019-04-23T21:46:38.294Z,99.90
2019-04-23T22:01:37.074Z,99.90
2019-04-23T22:06:35.549Z,99.90
2019-04-23T22:09:10.961Z,99.90
2019-04-23T22:12:22.922Z,99.90
2019-04-23T22:16:38.597Z,99.90
2019-04-23T22:21:32.990Z,99.90
2019-04-23T22:26:32.216Z,99.90
2019-04-23T22:29:07.267Z,99.90
2019-04-23T22:31:29.207Z,99.90
2019-04-23T22:34:02.686Z,99.90
2019-04-23T22:36:20.714Z,99.90
2019-04-23T22:38:59.573Z,99.90
2019-04-23T22:41:28.467Z,99.90
2019-04-23T22:43:59.411Z,99.90
2019-04-23T22:46:27.144Z,99.90
2019-04-23T22:51:42.106Z,99.90
2019-04-23T22:54:07.032Z,99.90
2019-04-23T22:56:25.594Z,99.90
2019-04-23T22:59:21.962Z,99.90
2019-04-23T23:01:43.111Z,99.90
2019-04-23T23:11:34.890Z,99.90
2019-04-23T23:14:18.898Z,99.90
2019-04-23T23:16:37.618Z,99.90
2019-04-23T23:19:06.914Z,99.90
2019-04-23T23:21:50.092Z,99.90
2019-04-23T23:24:00.076Z,99.90
2019-04-23T23:26:33.677Z,99.90
2019-04-23T23:29:12.303Z,99.90
2019-04-23T23:31:34.617Z,99.90
2019-04-23T23:34:05.190Z,99.90
2019-04-23T23:36:30.092Z,99.90
2019-04-23T23:41:28.672Z,99.90
2019-04-23T23:44:18.094Z,99.90
2019-04-23T23:46:29.621Z,99.90
2019-04-23T23:48:57.030Z,99.90
2019-04-23T23:51:27.347Z,99.90
2019-04-23T23:53:57.333Z,99.90
2019-04-23T23:58:56.886Z,99.90
